sensor_id;sensor_type;location;lat;lon;timestamp;P1;durP1;ratioP1;P2;durP2;ratioP2
36593;SDS011;22603;47.900;8.146;2024-02-21T00:01:46;8.07;;;2.73;;
36593;SDS011;22603;47.900;8.146;2024-02-21T00:04:33;6.27;;;2.13;;
36593;SDS011;22603;47.900;8.146;2024-02-21T00:07:20;6.73;;;2.23;;
36593;SDS011;22603;47.900;8.146;2024-02-21T00:10:08;7.57;;;2.40;;
36593;SDS011;22603;47.900;8.146;2024-02-21T00:12:54;8.97;;;2.50;;
36593;SDS011;22603;47.900;8.146;2024-02-21T00:15:42;8.47;;;2.30;;
36593;SDS011;22603;47.900;8.146;2024-02-21T00:18:29;5.33;;;2.20;;
36593;SDS011;22603;47.900;8.146;2024-02-21T00:21:16;4.57;;;1.90;;
36593;SDS011;22603;47.900;8.146;2024-02-21T00:24:03;4.80;;;1.37;;
36593;SDS011;22603;47.900;8.146;2024-02-21T00:26:51;5.87;;;1.60;;
36593;SDS011;22603;47.900;8.146;2024-02-21T00:29:37;4.27;;;1.80;;
36593;SDS011;22603;47.900;8.146;2024-02-21T00:32:25;4.07;;;1.63;;
36593;SDS011;22603;47.900;8.146;2024-02-21T00:35:13;8.90;;;2.00;;
36593;SDS011;22603;47.900;8.146;2024-02-21T00:37:59;2.77;;;1.63;;
36593;SDS011;22603;47.900;8.146;2024-02-21T00:40:48;6.57;;;1.67;;
36593;SDS011;22603;47.900;8.146;2024-02-21T00:43:34;4.17;;;1.80;;
36593;SDS011;22603;47.900;8.146;2024-02-21T00:46:21;4.27;;;2.20;;
36593;SDS011;22603;47.900;8.146;2024-02-21T00:49:09;5.50;;;1.93;;
36593;SDS011;22603;47.900;8.146;2024-02-21T00:51:56;7.47;;;1.93;;
36593;SDS011;22603;47.900;8.146;2024-02-21T00:54:43;5.90;;;1.73;;
36593;SDS011;22603;47.900;8.146;2024-02-21T00:57:38;4.33;;;1.40;;
36593;SDS011;22603;47.900;8.146;2024-02-21T01:00:25;3.57;;;1.73;;
36593;SDS011;22603;47.900;8.146;2024-02-21T01:03:11;4.97;;;1.80;;
36593;SDS011;22603;47.900;8.146;2024-02-21T01:05:59;11.73;;;2.37;;
36593;SDS011;22603;47.900;8.146;2024-02-21T01:08:46;6.27;;;1.60;;
36593;SDS011;22603;47.900;8.146;2024-02-21T01:11:32;3.83;;;1.70;;
36593;SDS011;22603;47.900;8.146;2024-02-21T01:14:19;4.40;;;1.40;;
36593;SDS011;22603;47.900;8.146;2024-02-21T01:17:06;4.33;;;1.67;;
36593;SDS011;22603;47.900;8.146;2024-02-21T01:19:53;4.50;;;1.80;;
36593;SDS011;22603;47.900;8.146;2024-02-21T01:22:41;4.60;;;1.83;;
36593;SDS011;22603;47.900;8.146;2024-02-21T01:25:27;3.43;;;1.50;;
36593;SDS011;22603;47.900;8.146;2024-02-21T01:28:14;7.03;;;2.17;;
36593;SDS011;22603;47.900;8.146;2024-02-21T01:31:01;3.90;;;1.50;;
36593;SDS011;22603;47.900;8.146;2024-02-21T01:33:48;4.60;;;2.00;;
36593;SDS011;22603;47.900;8.146;2024-02-21T01:36:35;8.53;;;2.03;;
36593;SDS011;22603;47.900;8.146;2024-02-21T01:39:23;9.90;;;1.80;;
36593;SDS011;22603;47.900;8.146;2024-02-21T01:42:10;3.67;;;1.67;;
36593;SDS011;22603;47.900;8.146;2024-02-21T01:44:56;5.93;;;1.80;;
36593;SDS011;22603;47.900;8.146;2024-02-21T01:47:43;12.63;;;3.07;;
36593;SDS011;22603;47.900;8.146;2024-02-21T01:50:30;6.47;;;1.80;;
36593;SDS011;22603;47.900;8.146;2024-02-21T01:53:18;9.27;;;2.53;;
36593;SDS011;22603;47.900;8.146;2024-02-21T01:56:08;4.23;;;1.70;;
36593;SDS011;22603;47.900;8.146;2024-02-21T01:58:55;6.13;;;1.80;;
36593;SDS011;22603;47.900;8.146;2024-02-21T02:01:42;4.97;;;1.77;;
36593;SDS011;22603;47.900;8.146;2024-02-21T02:04:29;5.27;;;1.80;;
36593;SDS011;22603;47.900;8.146;2024-02-21T02:07:16;7.23;;;1.87;;
36593;SDS011;22603;47.900;8.146;2024-02-21T02:10:04;6.23;;;2.23;;
36593;SDS011;22603;47.900;8.146;2024-02-21T02:12:52;4.13;;;1.40;;
36593;SDS011;22603;47.900;8.146;2024-02-21T02:15:40;5.10;;;1.50;;
36593;SDS011;22603;47.900;8.146;2024-02-21T02:18:26;6.30;;;1.50;;
36593;SDS011;22603;47.900;8.146;2024-02-21T02:21:15;3.60;;;1.57;;
36593;SDS011;22603;47.900;8.146;2024-02-21T02:24:10;5.67;;;1.70;;
36593;SDS011;22603;47.900;8.146;2024-02-21T02:26:58;4.83;;;1.80;;
36593;SDS011;22603;47.900;8.146;2024-02-21T02:29:45;6.37;;;1.80;;
36593;SDS011;22603;47.900;8.146;2024-02-21T02:32:32;8.00;;;2.03;;
36593;SDS011;22603;47.900;8.146;2024-02-21T02:35:19;5.83;;;1.90;;
36593;SDS011;22603;47.900;8.146;2024-02-21T02:38:05;5.93;;;1.87;;
36593;SDS011;22603;47.900;8.146;2024-02-21T02:40:53;7.83;;;2.23;;
36593;SDS011;22603;47.900;8.146;2024-02-21T02:43:40;5.20;;;1.63;;
36593;SDS011;22603;47.900;8.146;2024-02-21T02:46:27;9.07;;;2.20;;
36593;SDS011;22603;47.900;8.146;2024-02-21T02:49:14;3.20;;;1.67;;
36593;SDS011;22603;47.900;8.146;2024-02-21T02:52:01;5.93;;;2.13;;
36593;SDS011;22603;47.900;8.146;2024-02-21T02:54:48;4.70;;;1.43;;
36593;SDS011;22603;47.900;8.146;2024-02-21T02:57:38;5.90;;;1.93;;
36593;SDS011;22603;47.900;8.146;2024-02-21T03:00:26;6.47;;;1.90;;
36593;SDS011;22603;47.900;8.146;2024-02-21T03:03:14;6.20;;;1.83;;
36593;SDS011;22603;47.900;8.146;2024-02-21T03:06:00;6.07;;;2.40;;
36593;SDS011;22603;47.900;8.146;2024-02-21T03:08:47;5.50;;;2.40;;
36593;SDS011;22603;47.900;8.146;2024-02-21T03:11:35;6.00;;;1.73;;
36593;SDS011;22603;47.900;8.146;2024-02-21T03:14:27;5.20;;;2.00;;
36593;SDS011;22603;47.900;8.146;2024-02-21T03:17:14;5.83;;;2.00;;
36593;SDS011;22603;47.900;8.146;2024-02-21T03:20:00;5.53;;;1.93;;
36593;SDS011;22603;47.900;8.146;2024-02-21T03:22:50;10.00;;;2.47;;
36593;SDS011;22603;47.900;8.146;2024-02-21T03:25:37;6.10;;;2.10;;
36593;SDS011;22603;47.900;8.146;2024-02-21T03:28:24;11.70;;;2.57;;
36593;SDS011;22603;47.900;8.146;2024-02-21T03:31:12;7.80;;;1.83;;
36593;SDS011;22603;47.900;8.146;2024-02-21T03:33:59;7.30;;;2.10;;
36593;SDS011;22603;47.900;8.146;2024-02-21T03:36:46;8.40;;;2.50;;
36593;SDS011;22603;47.900;8.146;2024-02-21T03:39:33;6.23;;;1.80;;
36593;SDS011;22603;47.900;8.146;2024-02-21T03:42:19;9.73;;;2.60;;
36593;SDS011;22603;47.900;8.146;2024-02-21T03:45:06;7.23;;;2.40;;
36593;SDS011;22603;47.900;8.146;2024-02-21T03:47:55;6.53;;;2.63;;
36593;SDS011;22603;47.900;8.146;2024-02-21T03:50:42;6.23;;;2.60;;
36593;SDS011;22603;47.900;8.146;2024-02-21T03:53:29;5.07;;;2.00;;
36593;SDS011;22603;47.900;8.146;2024-02-21T03:56:16;7.03;;;2.10;;
36593;SDS011;22603;47.900;8.146;2024-02-21T03:59:03;7.13;;;2.30;;
36593;SDS011;22603;47.900;8.146;2024-02-21T04:01:51;7.47;;;1.87;;
36593;SDS011;22603;47.900;8.146;2024-02-21T04:04:42;6.67;;;1.97;;
36593;SDS011;22603;47.900;8.146;2024-02-21T04:07:31;4.37;;;1.50;;
36593;SDS011;22603;47.900;8.146;2024-02-21T04:10:18;6.57;;;2.00;;
36593;SDS011;22603;47.900;8.146;2024-02-21T04:13:04;6.33;;;1.83;;
36593;SDS011;22603;47.900;8.146;2024-02-21T04:15:52;5.07;;;1.90;;
36593;SDS011;22603;47.900;8.146;2024-02-21T04:18:39;5.30;;;2.03;;
36593;SDS011;22603;47.900;8.146;2024-02-21T04:21:27;3.03;;;1.60;;
36593;SDS011;22603;47.900;8.146;2024-02-21T04:24:14;5.57;;;2.17;;
36593;SDS011;22603;47.900;8.146;2024-02-21T04:27:00;4.80;;;1.90;;
36593;SDS011;22603;47.900;8.146;2024-02-21T04:29:47;6.43;;;2.43;;
36593;SDS011;22603;47.900;8.146;2024-02-21T04:32:34;6.40;;;2.43;;
36593;SDS011;22603;47.900;8.146;2024-02-21T04:35:20;8.37;;;2.17;;
36593;SDS011;22603;47.900;8.146;2024-02-21T04:38:08;6.70;;;2.17;;
36593;SDS011;22603;47.900;8.146;2024-02-21T04:40:55;5.77;;;1.83;;
36593;SDS011;22603;47.900;8.146;2024-02-21T04:43:43;6.67;;;2.10;;
36593;SDS011;22603;47.900;8.146;2024-02-21T04:46:31;5.13;;;1.80;;
36593;SDS011;22603;47.900;8.146;2024-02-21T04:49:18;4.10;;;1.80;;
36593;SDS011;22603;47.900;8.146;2024-02-21T04:52:05;3.67;;;1.80;;
36593;SDS011;22603;47.900;8.146;2024-02-21T04:54:53;9.07;;;2.13;;
36593;SDS011;22603;47.900;8.146;2024-02-21T04:57:40;4.67;;;1.70;;
36593;SDS011;22603;47.900;8.146;2024-02-21T05:00:27;7.47;;;1.80;;
36593;SDS011;22603;47.900;8.146;2024-02-21T05:03:13;11.23;;;2.57;;
36593;SDS011;22603;47.900;8.146;2024-02-21T05:06:00;3.43;;;1.47;;
36593;SDS011;22603;47.900;8.146;2024-02-21T05:08:47;2.13;;;1.60;;
36593;SDS011;22603;47.900;8.146;2024-02-21T05:11:35;8.43;;;2.53;;
36593;SDS011;22603;47.900;8.146;2024-02-21T05:14:23;5.40;;;2.10;;
36593;SDS011;22603;47.900;8.146;2024-02-21T05:17:09;9.33;;;2.37;;
36593;SDS011;22603;47.900;8.146;2024-02-21T05:19:56;4.47;;;1.90;;
36593;SDS011;22603;47.900;8.146;2024-02-21T05:22:43;10.80;;;1.90;;
36593;SDS011;22603;47.900;8.146;2024-02-21T05:25:30;16.83;;;5.27;;
36593;SDS011;22603;47.900;8.146;2024-02-21T05:28:17;16.97;;;4.57;;
36593;SDS011;22603;47.900;8.146;2024-02-21T05:31:04;12.30;;;4.20;;
36593;SDS011;22603;47.900;8.146;2024-02-21T05:33:51;9.83;;;3.67;;
36593;SDS011;22603;47.900;8.146;2024-02-21T05:36:38;8.80;;;2.60;;
36593;SDS011;22603;47.900;8.146;2024-02-21T05:39:25;6.03;;;2.53;;
36593;SDS011;22603;47.900;8.146;2024-02-21T05:42:13;3.70;;;1.80;;
36593;SDS011;22603;47.900;8.146;2024-02-21T05:45:01;5.87;;;2.10;;
36593;SDS011;22603;47.900;8.146;2024-02-21T05:47:48;5.37;;;2.27;;
36593;SDS011;22603;47.900;8.146;2024-02-21T05:50:35;5.83;;;2.40;;
36593;SDS011;22603;47.900;8.146;2024-02-21T05:53:22;6.30;;;2.40;;
36593;SDS011;22603;47.900;8.146;2024-02-21T05:56:09;3.90;;;1.77;;
36593;SDS011;22603;47.900;8.146;2024-02-21T05:58:57;5.43;;;2.20;;
36593;SDS011;22603;47.900;8.146;2024-02-21T06:01:45;5.07;;;2.30;;
36593;SDS011;22603;47.900;8.146;2024-02-21T06:04:41;4.20;;;2.10;;
36593;SDS011;22603;47.900;8.146;2024-02-21T06:07:29;8.00;;;2.70;;
36593;SDS011;22603;47.900;8.146;2024-02-21T06:10:16;4.63;;;2.10;;
36593;SDS011;22603;47.900;8.146;2024-02-21T06:13:03;10.20;;;2.30;;
36593;SDS011;22603;47.900;8.146;2024-02-21T06:15:50;7.77;;;2.00;;
36593;SDS011;22603;47.900;8.146;2024-02-21T06:18:38;12.37;;;2.27;;
36593;SDS011;22603;47.900;8.146;2024-02-21T06:21:28;8.57;;;2.43;;
36593;SDS011;22603;47.900;8.146;2024-02-21T06:24:15;6.57;;;2.50;;
36593;SDS011;22603;47.900;8.146;2024-02-21T06:27:01;10.57;;;2.60;;
36593;SDS011;22603;47.900;8.146;2024-02-21T06:29:52;12.20;;;3.20;;
36593;SDS011;22603;47.900;8.146;2024-02-21T06:32:39;6.90;;;2.17;;
36593;SDS011;22603;47.900;8.146;2024-02-21T06:35:27;7.23;;;2.43;;
36593;SDS011;22603;47.900;8.146;2024-02-21T06:38:13;7.33;;;2.60;;
36593;SDS011;22603;47.900;8.146;2024-02-21T06:41:02;7.10;;;2.80;;
36593;SDS011;22603;47.900;8.146;2024-02-21T06:43:50;3.77;;;2.03;;
36593;SDS011;22603;47.900;8.146;2024-02-21T06:46:37;4.70;;;1.90;;
36593;SDS011;22603;47.900;8.146;2024-02-21T06:49:23;6.10;;;2.40;;
36593;SDS011;22603;47.900;8.146;2024-02-21T06:52:12;7.50;;;2.87;;
36593;SDS011;22603;47.900;8.146;2024-02-21T06:55:02;4.87;;;2.40;;
36593;SDS011;22603;47.900;8.146;2024-02-21T06:57:49;8.57;;;2.63;;
36593;SDS011;22603;47.900;8.146;2024-02-21T07:00:37;12.97;;;2.70;;
36593;SDS011;22603;47.900;8.146;2024-02-21T07:03:25;7.03;;;2.60;;
36593;SDS011;22603;47.900;8.146;2024-02-21T07:06:11;8.57;;;3.30;;
36593;SDS011;22603;47.900;8.146;2024-02-21T07:08:59;9.50;;;2.37;;
36593;SDS011;22603;47.900;8.146;2024-02-21T07:11:46;8.07;;;2.33;;
36593;SDS011;22603;47.900;8.146;2024-02-21T07:14:33;7.50;;;2.93;;
36593;SDS011;22603;47.900;8.146;2024-02-21T07:17:21;10.73;;;2.60;;
36593;SDS011;22603;47.900;8.146;2024-02-21T07:20:08;7.73;;;2.30;;
36593;SDS011;22603;47.900;8.146;2024-02-21T07:22:55;8.37;;;2.90;;
36593;SDS011;22603;47.900;8.146;2024-02-21T07:25:43;6.53;;;2.20;;
36593;SDS011;22603;47.900;8.146;2024-02-21T07:28:30;6.97;;;2.50;;
36593;SDS011;22603;47.900;8.146;2024-02-21T07:31:17;12.40;;;2.73;;
36593;SDS011;22603;47.900;8.146;2024-02-21T07:34:04;6.43;;;3.10;;
36593;SDS011;22603;47.900;8.146;2024-02-21T07:36:50;5.50;;;2.30;;
36593;SDS011;22603;47.900;8.146;2024-02-21T07:39:37;7.40;;;2.97;;
36593;SDS011;22603;47.900;8.146;2024-02-21T07:42:25;45.93;;;4.50;;
36593;SDS011;22603;47.900;8.146;2024-02-21T07:45:12;15.77;;;2.73;;
36593;SDS011;22603;47.900;8.146;2024-02-21T07:47:59;71.57;;;4.67;;
36593;SDS011;22603;47.900;8.146;2024-02-21T07:50:45;27.20;;;3.40;;
36593;SDS011;22603;47.900;8.146;2024-02-21T07:53:32;31.03;;;2.43;;
36593;SDS011;22603;47.900;8.146;2024-02-21T07:56:19;13.47;;;2.70;;
36593;SDS011;22603;47.900;8.146;2024-02-21T07:59:08;23.47;;;3.33;;
36593;SDS011;22603;47.900;8.146;2024-02-21T08:01:55;29.90;;;3.47;;
36593;SDS011;22603;47.900;8.146;2024-02-21T08:04:42;7.20;;;2.30;;
36593;SDS011;22603;47.900;8.146;2024-02-21T08:07:29;44.17;;;2.87;;
36593;SDS011;22603;47.900;8.146;2024-02-21T08:10:15;5.27;;;2.17;;
36593;SDS011;22603;47.900;8.146;2024-02-21T08:13:02;15.93;;;2.47;;
36593;SDS011;22603;47.900;8.146;2024-02-21T08:15:50;5.77;;;2.03;;
36593;SDS011;22603;47.900;8.146;2024-02-21T08:18:37;8.70;;;2.73;;
36593;SDS011;22603;47.900;8.146;2024-02-21T08:21:24;4.30;;;1.90;;
36593;SDS011;22603;47.900;8.146;2024-02-21T08:24:11;5.17;;;2.17;;
36593;SDS011;22603;47.900;8.146;2024-02-21T08:26:58;3.97;;;1.90;;
36593;SDS011;22603;47.900;8.146;2024-02-21T08:29:44;5.23;;;2.20;;
36593;SDS011;22603;47.900;8.146;2024-02-21T08:32:33;6.50;;;2.27;;
36593;SDS011;22603;47.900;8.146;2024-02-21T08:35:20;5.67;;;1.70;;
36593;SDS011;22603;47.900;8.146;2024-02-21T08:38:08;6.87;;;2.20;;
36593;SDS011;22603;47.900;8.146;2024-02-21T08:40:54;6.97;;;2.00;;
36593;SDS011;22603;47.900;8.146;2024-02-21T08:43:41;8.83;;;2.37;;
36593;SDS011;22603;47.900;8.146;2024-02-21T08:46:28;5.93;;;2.10;;
36593;SDS011;22603;47.900;8.146;2024-02-21T08:49:16;5.93;;;2.30;;
36593;SDS011;22603;47.900;8.146;2024-02-21T08:52:03;6.77;;;2.30;;
36593;SDS011;22603;47.900;8.146;2024-02-21T08:54:50;7.03;;;2.30;;
36593;SDS011;22603;47.900;8.146;2024-02-21T08:57:38;6.53;;;2.43;;
36593;SDS011;22603;47.900;8.146;2024-02-21T09:00:25;5.90;;;2.10;;
36593;SDS011;22603;47.900;8.146;2024-02-21T09:03:13;5.67;;;2.40;;
36593;SDS011;22603;47.900;8.146;2024-02-21T09:06:01;8.03;;;2.27;;
36593;SDS011;22603;47.900;8.146;2024-02-21T09:08:48;8.30;;;2.27;;
36593;SDS011;22603;47.900;8.146;2024-02-21T09:11:35;9.10;;;2.30;;
36593;SDS011;22603;47.900;8.146;2024-02-21T09:14:22;5.80;;;2.03;;
36593;SDS011;22603;47.900;8.146;2024-02-21T09:17:09;8.17;;;2.23;;
36593;SDS011;22603;47.900;8.146;2024-02-21T09:19:55;6.97;;;2.50;;
36593;SDS011;22603;47.900;8.146;2024-02-21T09:22:47;5.30;;;2.20;;
36593;SDS011;22603;47.900;8.146;2024-02-21T09:25:33;4.57;;;1.60;;
36593;SDS011;22603;47.900;8.146;2024-02-21T09:28:21;3.43;;;1.57;;
36593;SDS011;22603;47.900;8.146;2024-02-21T09:31:08;4.30;;;1.70;;
36593;SDS011;22603;47.900;8.146;2024-02-21T09:33:55;7.10;;;2.20;;
36593;SDS011;22603;47.900;8.146;2024-02-21T09:36:41;6.07;;;2.13;;
36593;SDS011;22603;47.900;8.146;2024-02-21T09:39:30;5.40;;;1.87;;
36593;SDS011;22603;47.900;8.146;2024-02-21T09:42:18;3.63;;;1.67;;
36593;SDS011;22603;47.900;8.146;2024-02-21T09:45:07;5.80;;;1.60;;
36593;SDS011;22603;47.900;8.146;2024-02-21T09:48:02;6.17;;;1.93;;
36593;SDS011;22603;47.900;8.146;2024-02-21T09:51:01;7.37;;;1.93;;
36593;SDS011;22603;47.900;8.146;2024-02-21T09:53:49;5.67;;;1.80;;
36593;SDS011;22603;47.900;8.146;2024-02-21T09:56:56;8.13;;;1.60;;
36593;SDS011;22603;47.900;8.146;2024-02-21T09:59:43;4.73;;;1.93;;
36593;SDS011;22603;47.900;8.146;2024-02-21T10:02:31;7.40;;;2.00;;
36593;SDS011;22603;47.900;8.146;2024-02-21T10:05:17;10.93;;;2.35;;
36593;SDS011;22603;47.900;8.146;2024-02-21T10:08:04;8.27;;;2.10;;
36593;SDS011;22603;47.900;8.146;2024-02-21T10:10:52;5.53;;;2.08;;
36593;SDS011;22603;47.900;8.146;2024-02-21T10:13:42;5.40;;;2.00;;
36593;SDS011;22603;47.900;8.146;2024-02-21T10:16:30;5.17;;;2.00;;
36593;SDS011;22603;47.900;8.146;2024-02-21T10:19:17;8.57;;;2.00;;
36593;SDS011;22603;47.900;8.146;2024-02-21T10:22:06;5.50;;;2.10;;
36593;SDS011;22603;47.900;8.146;2024-02-21T10:24:55;6.47;;;2.00;;
36593;SDS011;22603;47.900;8.146;2024-02-21T10:27:52;4.63;;;1.97;;
36593;SDS011;22603;47.900;8.146;2024-02-21T10:30:50;5.20;;;2.13;;
36593;SDS011;22603;47.900;8.146;2024-02-21T10:33:37;3.97;;;1.83;;
36593;SDS011;22603;47.900;8.146;2024-02-21T10:36:25;4.77;;;1.43;;
36593;SDS011;22603;47.900;8.146;2024-02-21T10:39:12;7.50;;;1.70;;
36593;SDS011;22603;47.900;8.146;2024-02-21T10:41:59;3.70;;;1.50;;
36593;SDS011;22603;47.900;8.146;2024-02-21T10:44:50;2.90;;;1.10;;
36593;SDS011;22603;47.900;8.146;2024-02-21T10:47:39;4.80;;;1.40;;
36593;SDS011;22603;47.900;8.146;2024-02-21T10:50:28;2.58;;;1.33;;
36593;SDS011;22603;47.900;8.146;2024-02-21T10:53:19;3.90;;;1.40;;
36593;SDS011;22603;47.900;8.146;2024-02-21T10:56:22;2.35;;;0.90;;
36593;SDS011;22603;47.900;8.146;2024-02-21T10:59:15;3.03;;;0.82;;
36593;SDS011;22603;47.900;8.146;2024-02-21T11:02:04;3.35;;;0.68;;
36593;SDS011;22603;47.900;8.146;2024-02-21T11:04:52;1.83;;;0.55;;
36593;SDS011;22603;47.900;8.146;2024-02-21T11:07:41;0.47;;;0.47;;
36593;SDS011;22603;47.900;8.146;2024-02-21T11:10:28;0.50;;;0.50;;
36593;SDS011;22603;47.900;8.146;2024-02-21T11:13:14;0.82;;;0.60;;
36593;SDS011;22603;47.900;8.146;2024-02-21T11:16:08;0.60;;;0.43;;
36593;SDS011;22603;47.900;8.146;2024-02-21T11:19:03;2.70;;;0.70;;
36593;SDS011;22603;47.900;8.146;2024-02-21T11:21:53;0.77;;;0.57;;
36593;SDS011;22603;47.900;8.146;2024-02-21T11:24:43;1.75;;;0.90;;
36593;SDS011;22603;47.900;8.146;2024-02-21T11:27:33;1.08;;;0.50;;
36593;SDS011;22603;47.900;8.146;2024-02-21T11:30:20;0.47;;;0.47;;
36593;SDS011;22603;47.900;8.146;2024-02-21T11:33:13;0.60;;;0.60;;
36593;SDS011;22603;47.900;8.146;2024-02-21T11:36:00;1.05;;;0.50;;
36593;SDS011;22603;47.900;8.146;2024-02-21T11:38:50;2.30;;;0.68;;
36593;SDS011;22603;47.900;8.146;2024-02-21T11:41:37;2.05;;;0.70;;
36593;SDS011;22603;47.900;8.146;2024-02-21T11:44:24;0.50;;;0.50;;
36593;SDS011;22603;47.900;8.146;2024-02-21T11:47:11;1.38;;;0.70;;
36593;SDS011;22603;47.900;8.146;2024-02-21T11:49:57;2.75;;;0.77;;
36593;SDS011;22603;47.900;8.146;2024-02-21T11:52:44;0.82;;;0.55;;
36593;SDS011;22603;47.900;8.146;2024-02-21T11:55:33;1.17;;;0.50;;
36593;SDS011;22603;47.900;8.146;2024-02-21T11:58:20;0.73;;;0.63;;
36593;SDS011;22603;47.900;8.146;2024-02-21T12:01:07;1.95;;;0.60;;
36593;SDS011;22603;47.900;8.146;2024-02-21T12:03:53;0.40;;;0.40;;
36593;SDS011;22603;47.900;8.146;2024-02-21T12:06:41;1.58;;;0.90;;
36593;SDS011;22603;47.900;8.146;2024-02-21T12:09:27;0.82;;;0.70;;
36593;SDS011;22603;47.900;8.146;2024-02-21T12:12:19;1.95;;;0.68;;
36593;SDS011;22603;47.900;8.146;2024-02-21T12:15:06;0.40;;;0.40;;
36593;SDS011;22603;47.900;8.146;2024-02-21T12:17:53;1.23;;;0.93;;
36593;SDS011;22603;47.900;8.146;2024-02-21T12:20:41;0.55;;;0.55;;
36593;SDS011;22603;47.900;8.146;2024-02-21T12:23:28;0.80;;;0.60;;
36593;SDS011;22603;47.900;8.146;2024-02-21T12:26:15;0.40;;;0.40;;
36593;SDS011;22603;47.900;8.146;2024-02-21T12:29:05;0.77;;;0.50;;
36593;SDS011;22603;47.900;8.146;2024-02-21T12:31:54;0.70;;;0.40;;
36593;SDS011;22603;47.900;8.146;2024-02-21T12:34:40;2.05;;;0.50;;
36593;SDS011;22603;47.900;8.146;2024-02-21T12:37:38;0.68;;;0.38;;
36593;SDS011;22603;47.900;8.146;2024-02-21T12:40:25;0.45;;;0.45;;
36593;SDS011;22603;47.900;8.146;2024-02-21T12:43:17;0.70;;;0.50;;
36593;SDS011;22603;47.900;8.146;2024-02-21T12:46:06;0.95;;;0.70;;
36593;SDS011;22603;47.900;8.146;2024-02-21T12:48:53;0.95;;;0.40;;
36593;SDS011;22603;47.900;8.146;2024-02-21T12:51:39;0.80;;;0.60;;
36593;SDS011;22603;47.900;8.146;2024-02-21T12:54:27;0.63;;;0.60;;
36593;SDS011;22603;47.900;8.146;2024-02-21T12:57:15;0.75;;;0.43;;
36593;SDS011;22603;47.900;8.146;2024-02-21T13:00:02;1.55;;;0.52;;
36593;SDS011;22603;47.900;8.146;2024-02-21T13:02:52;1.02;;;0.63;;
36593;SDS011;22603;47.900;8.146;2024-02-21T13:05:39;0.38;;;0.38;;
36593;SDS011;22603;47.900;8.146;2024-02-21T13:08:26;0.55;;;0.52;;
36593;SDS011;22603;47.900;8.146;2024-02-21T13:11:12;0.90;;;0.60;;
36593;SDS011;22603;47.900;8.146;2024-02-21T13:13:59;0.38;;;0.38;;
36593;SDS011;22603;47.900;8.146;2024-02-21T13:16:47;1.10;;;0.60;;
36593;SDS011;22603;47.900;8.146;2024-02-21T13:19:36;1.20;;;0.52;;
36593;SDS011;22603;47.900;8.146;2024-02-21T13:22:23;1.25;;;0.70;;
36593;SDS011;22603;47.900;8.146;2024-02-21T13:25:10;0.65;;;0.43;;
36593;SDS011;22603;47.900;8.146;2024-02-21T13:28:00;1.25;;;0.70;;
36593;SDS011;22603;47.900;8.146;2024-02-21T13:30:47;0.40;;;0.40;;
36593;SDS011;22603;47.900;8.146;2024-02-21T13:33:34;0.73;;;0.50;;
36593;SDS011;22603;47.900;8.146;2024-02-21T13:36:22;0.47;;;0.45;;
36593;SDS011;22603;47.900;8.146;2024-02-21T13:39:09;0.60;;;0.32;;
36593;SDS011;22603;47.900;8.146;2024-02-21T13:42:00;0.40;;;0.40;;
36593;SDS011;22603;47.900;8.146;2024-02-21T13:44:47;0.43;;;0.43;;
36593;SDS011;22603;47.900;8.146;2024-02-21T13:47:34;0.40;;;0.40;;
36593;SDS011;22603;47.900;8.146;2024-02-21T13:50:23;1.05;;;0.47;;
36593;SDS011;22603;47.900;8.146;2024-02-21T13:53:17;1.45;;;0.50;;
36593;SDS011;22603;47.900;8.146;2024-02-21T13:56:05;0.63;;;0.45;;
36593;SDS011;22603;47.900;8.146;2024-02-21T13:58:55;0.65;;;0.55;;
36593;SDS011;22603;47.900;8.146;2024-02-21T14:01:44;1.27;;;0.70;;
36593;SDS011;22603;47.900;8.146;2024-02-21T14:04:32;0.35;;;0.35;;
36593;SDS011;22603;47.900;8.146;2024-02-21T14:07:19;0.50;;;0.50;;
36593;SDS011;22603;47.900;8.146;2024-02-21T14:10:07;0.93;;;0.60;;
36593;SDS011;22603;47.900;8.146;2024-02-21T14:12:55;0.57;;;0.47;;
36593;SDS011;22603;47.900;8.146;2024-02-21T14:15:43;0.73;;;0.50;;
36593;SDS011;22603;47.900;8.146;2024-02-21T14:18:32;2.78;;;0.70;;
36593;SDS011;22603;47.900;8.146;2024-02-21T14:21:19;1.38;;;0.60;;
36593;SDS011;22603;47.900;8.146;2024-02-21T14:24:06;1.70;;;0.50;;
36593;SDS011;22603;47.900;8.146;2024-02-21T14:26:54;1.25;;;0.70;;
36593;SDS011;22603;47.900;8.146;2024-02-21T14:29:41;0.65;;;0.60;;
36593;SDS011;22603;47.900;8.146;2024-02-21T14:32:28;0.52;;;0.50;;
36593;SDS011;22603;47.900;8.146;2024-02-21T14:35:15;0.65;;;0.50;;
36593;SDS011;22603;47.900;8.146;2024-02-21T14:38:02;1.65;;;0.70;;
36593;SDS011;22603;47.900;8.146;2024-02-21T14:40:49;2.40;;;0.57;;
36593;SDS011;22603;47.900;8.146;2024-02-21T14:43:37;0.70;;;0.50;;
36593;SDS011;22603;47.900;8.146;2024-02-21T14:46:24;0.50;;;0.50;;
36593;SDS011;22603;47.900;8.146;2024-02-21T14:49:13;0.98;;;0.60;;
36593;SDS011;22603;47.900;8.146;2024-02-21T14:52:03;2.63;;;0.93;;
36593;SDS011;22603;47.900;8.146;2024-02-21T14:54:50;2.23;;;0.70;;
36593;SDS011;22603;47.900;8.146;2024-02-21T14:57:37;1.15;;;0.60;;
36593;SDS011;22603;47.900;8.146;2024-02-21T15:00:26;0.68;;;0.57;;
36593;SDS011;22603;47.900;8.146;2024-02-21T15:03:15;0.60;;;0.50;;
36593;SDS011;22603;47.900;8.146;2024-02-21T15:06:04;0.95;;;0.50;;
36593;SDS011;22603;47.900;8.146;2024-02-21T15:08:51;1.40;;;0.50;;
36593;SDS011;22603;47.900;8.146;2024-02-21T15:11:38;1.05;;;0.73;;
36593;SDS011;22603;47.900;8.146;2024-02-21T15:14:25;1.50;;;0.63;;
36593;SDS011;22603;47.900;8.146;2024-02-21T15:17:13;2.55;;;0.60;;
36593;SDS011;22603;47.900;8.146;2024-02-21T15:20:00;2.30;;;0.40;;
36593;SDS011;22603;47.900;8.146;2024-02-21T15:22:47;1.47;;;0.60;;
36593;SDS011;22603;47.900;8.146;2024-02-21T15:25:34;0.68;;;0.57;;
36593;SDS011;22603;47.900;8.146;2024-02-21T15:28:21;0.90;;;0.60;;
36593;SDS011;22603;47.900;8.146;2024-02-21T15:31:08;0.60;;;0.60;;
36593;SDS011;22603;47.900;8.146;2024-02-21T15:33:57;2.33;;;0.73;;
36593;SDS011;22603;47.900;8.146;2024-02-21T15:36:44;0.50;;;0.47;;
36593;SDS011;22603;47.900;8.146;2024-02-21T15:39:31;0.45;;;0.45;;
36593;SDS011;22603;47.900;8.146;2024-02-21T15:42:18;1.00;;;0.57;;
36593;SDS011;22603;47.900;8.146;2024-02-21T15:45:05;1.03;;;0.60;;
36593;SDS011;22603;47.900;8.146;2024-02-21T15:47:53;1.23;;;0.50;;
36593;SDS011;22603;47.900;8.146;2024-02-21T15:50:41;1.13;;;0.63;;
36593;SDS011;22603;47.900;8.146;2024-02-21T15:53:28;0.50;;;0.50;;
36593;SDS011;22603;47.900;8.146;2024-02-21T15:56:14;1.40;;;0.70;;
36593;SDS011;22603;47.900;8.146;2024-02-21T15:59:01;1.17;;;0.70;;
36593;SDS011;22603;47.900;8.146;2024-02-21T16:01:48;0.80;;;0.50;;
36593;SDS011;22603;47.900;8.146;2024-02-21T16:04:35;1.17;;;0.50;;
36593;SDS011;22603;47.900;8.146;2024-02-21T16:07:25;0.63;;;0.60;;
36593;SDS011;22603;47.900;8.146;2024-02-21T16:10:12;1.63;;;0.63;;
36593;SDS011;22603;47.900;8.146;2024-02-21T16:12:58;0.80;;;0.70;;
36593;SDS011;22603;47.900;8.146;2024-02-21T16:15:45;1.53;;;0.70;;
36593;SDS011;22603;47.900;8.146;2024-02-21T16:18:33;1.43;;;0.70;;
36593;SDS011;22603;47.900;8.146;2024-02-21T16:21:20;1.47;;;0.60;;
36593;SDS011;22603;47.900;8.146;2024-02-21T16:24:08;1.63;;;0.80;;
36593;SDS011;22603;47.900;8.146;2024-02-21T16:26:55;1.03;;;0.60;;
36593;SDS011;22603;47.900;8.146;2024-02-21T16:29:43;0.53;;;0.53;;
36593;SDS011;22603;47.900;8.146;2024-02-21T16:32:29;1.87;;;0.60;;
36593;SDS011;22603;47.900;8.146;2024-02-21T16:35:16;1.17;;;0.80;;
36593;SDS011;22603;47.900;8.146;2024-02-21T16:38:04;1.67;;;0.77;;
36593;SDS011;22603;47.900;8.146;2024-02-21T16:40:54;1.53;;;0.93;;
36593;SDS011;22603;47.900;8.146;2024-02-21T16:43:41;2.13;;;1.03;;
36593;SDS011;22603;47.900;8.146;2024-02-21T16:46:28;3.00;;;0.80;;
36593;SDS011;22603;47.900;8.146;2024-02-21T16:49:15;1.53;;;0.83;;